sensor_id;sensor_type;location;lat;lon;timestamp;P1;durP1;ratioP1;P2;durP2;ratioP2
12878;SDS011;20617;49.476;10.986;2023-04-25T00:00:51;4.75;;;3.40;;
12878;SDS011;20617;49.476;10.986;2023-04-25T00:02:56;5.82;;;3.90;;
12878;SDS011;20617;49.476;10.986;2023-04-25T00:05:02;7.57;;;3.85;;
12878;SDS011;20617;49.476;10.986;2023-04-25T00:07:07;5.68;;;3.40;;
12878;SDS011;20617;49.476;10.986;2023-04-25T00:09:15;5.15;;;3.58;;
12878;SDS011;20617;49.476;10.986;2023-04-25T00:11:20;4.43;;;3.50;;
12878;SDS011;20617;49.476;10.986;2023-04-25T00:13:25;3.00;;;2.70;;
12878;SDS011;20617;49.476;10.986;2023-04-25T00:15:31;3.40;;;2.97;;
12878;SDS011;20617;49.476;10.986;2023-04-25T00:17:42;3.58;;;2.88;;
12878;SDS011;20617;49.476;10.986;2023-04-25T00:19:47;4.72;;;3.42;;
12878;SDS011;20617;49.476;10.986;2023-04-25T00:21:52;4.63;;;3.03;;
12878;SDS011;20617;49.476;10.986;2023-04-25T00:23:59;3.58;;;2.83;;
12878;SDS011;20617;49.476;10.986;2023-04-25T00:26:04;4.55;;;2.80;;
12878;SDS011;20617;49.476;10.986;2023-04-25T00:28:09;2.90;;;2.55;;
12878;SDS011;20617;49.476;10.986;2023-04-25T00:30:14;3.47;;;2.55;;
12878;SDS011;20617;49.476;10.986;2023-04-25T00:32:20;4.43;;;2.70;;
12878;SDS011;20617;49.476;10.986;2023-04-25T00:34:29;5.78;;;2.70;;
12878;SDS011;20617;49.476;10.986;2023-04-25T00:36:34;3.63;;;3.03;;
12878;SDS011;20617;49.476;10.986;2023-04-25T00:38:39;3.67;;;2.67;;
12878;SDS011;20617;49.476;10.986;2023-04-25T00:40:45;2.75;;;2.33;;
12878;SDS011;20617;49.476;10.986;2023-04-25T00:42:50;4.40;;;2.60;;
12878;SDS011;20617;49.476;10.986;2023-04-25T00:44:56;3.72;;;2.80;;
12878;SDS011;20617;49.476;10.986;2023-04-25T00:47:02;5.70;;;3.25;;
12878;SDS011;20617;49.476;10.986;2023-04-25T00:49:08;3.60;;;2.60;;
12878;SDS011;20617;49.476;10.986;2023-04-25T00:51:20;4.20;;;2.80;;
12878;SDS011;20617;49.476;10.986;2023-04-25T00:53:27;4.43;;;3.15;;
12878;SDS011;20617;49.476;10.986;2023-04-25T00:55:33;3.60;;;3.20;;
12878;SDS011;20617;49.476;10.986;2023-04-25T00:57:38;4.75;;;3.22;;
12878;SDS011;20617;49.476;10.986;2023-04-25T00:59:45;3.10;;;2.55;;
12878;SDS011;20617;49.476;10.986;2023-04-25T01:03:55;3.22;;;2.28;;
12878;SDS011;20617;49.476;10.986;2023-04-25T01:06:02;2.67;;;2.45;;
12878;SDS011;20617;49.476;10.986;2023-04-25T01:08:10;3.30;;;2.85;;
12878;SDS011;20617;49.476;10.986;2023-04-25T01:10:15;2.40;;;2.08;;
12878;SDS011;20617;49.476;10.986;2023-04-25T01:12:20;2.45;;;2.25;;
12878;SDS011;20617;49.476;10.986;2023-04-25T01:14:26;3.38;;;2.45;;
12878;SDS011;20617;49.476;10.986;2023-04-25T01:16:31;2.65;;;2.42;;
12878;SDS011;20617;49.476;10.986;2023-04-25T01:18:38;4.15;;;2.45;;
12878;SDS011;20617;49.476;10.986;2023-04-25T01:20:46;3.47;;;2.70;;
12878;SDS011;20617;49.476;10.986;2023-04-25T01:22:54;2.90;;;2.28;;
12878;SDS011;20617;49.476;10.986;2023-04-25T01:25:00;4.75;;;2.67;;
12878;SDS011;20617;49.476;10.986;2023-04-25T01:27:05;3.15;;;2.53;;
12878;SDS011;20617;49.476;10.986;2023-04-25T01:29:11;3.30;;;2.60;;
12878;SDS011;20617;49.476;10.986;2023-04-25T01:33:21;3.22;;;2.55;;
12878;SDS011;20617;49.476;10.986;2023-04-25T01:35:26;3.17;;;2.88;;
12878;SDS011;20617;49.476;10.986;2023-04-25T01:39:39;4.05;;;2.53;;
12878;SDS011;20617;49.476;10.986;2023-04-25T01:41:44;4.15;;;2.65;;
12878;SDS011;20617;49.476;10.986;2023-04-25T01:43:50;4.25;;;2.40;;
12878;SDS011;20617;49.476;10.986;2023-04-25T01:45:55;2.88;;;2.60;;
12878;SDS011;20617;49.476;10.986;2023-04-25T01:48:01;3.92;;;2.22;;
12878;SDS011;20617;49.476;10.986;2023-04-25T01:50:06;3.25;;;2.88;;
12878;SDS011;20617;49.476;10.986;2023-04-25T01:52:13;2.40;;;2.20;;
12878;SDS011;20617;49.476;10.986;2023-04-25T01:54:18;3.45;;;2.60;;
12878;SDS011;20617;49.476;10.986;2023-04-25T01:56:27;4.82;;;2.63;;
12878;SDS011;20617;49.476;10.986;2023-04-25T01:58:35;3.55;;;2.67;;
12878;SDS011;20617;49.476;10.986;2023-04-25T02:00:59;2.88;;;2.65;;
12878;SDS011;20617;49.476;10.986;2023-04-25T02:03:12;2.95;;;2.65;;
12878;SDS011;20617;49.476;10.986;2023-04-25T02:05:18;3.72;;;2.47;;
12878;SDS011;20617;49.476;10.986;2023-04-25T02:09:28;4.30;;;3.03;;
12878;SDS011;20617;49.476;10.986;2023-04-25T02:11:40;3.15;;;2.70;;
12878;SDS011;20617;49.476;10.986;2023-04-25T02:14:01;3.13;;;2.60;;
12878;SDS011;20617;49.476;10.986;2023-04-25T02:16:13;4.43;;;3.00;;
12878;SDS011;20617;49.476;10.986;2023-04-25T02:18:18;4.10;;;2.83;;
12878;SDS011;20617;49.476;10.986;2023-04-25T02:20:24;3.47;;;2.85;;
12878;SDS011;20617;49.476;10.986;2023-04-25T02:22:29;3.85;;;2.63;;
12878;SDS011;20617;49.476;10.986;2023-04-25T02:24:35;3.50;;;2.90;;
12878;SDS011;20617;49.476;10.986;2023-04-25T02:26:43;4.22;;;2.88;;
12878;SDS011;20617;49.476;10.986;2023-04-25T02:28:48;5.57;;;3.28;;
12878;SDS011;20617;49.476;10.986;2023-04-25T02:32:58;3.40;;;3.08;;
12878;SDS011;20617;49.476;10.986;2023-04-25T02:35:04;3.50;;;3.20;;
12878;SDS011;20617;49.476;10.986;2023-04-25T02:37:09;3.78;;;2.60;;
12878;SDS011;20617;49.476;10.986;2023-04-25T02:39:14;4.93;;;2.67;;
12878;SDS011;20617;49.476;10.986;2023-04-25T02:41:19;3.75;;;2.90;;
12878;SDS011;20617;49.476;10.986;2023-04-25T02:43:27;3.97;;;3.13;;
12878;SDS011;20617;49.476;10.986;2023-04-25T02:45:32;3.30;;;2.47;;
12878;SDS011;20617;49.476;10.986;2023-04-25T02:47:37;3.20;;;2.88;;
12878;SDS011;20617;49.476;10.986;2023-04-25T02:49:42;4.45;;;3.17;;
12878;SDS011;20617;49.476;10.986;2023-04-25T02:51:47;3.70;;;2.97;;
12878;SDS011;20617;49.476;10.986;2023-04-25T02:53:52;3.42;;;3.05;;
12878;SDS011;20617;49.476;10.986;2023-04-25T02:55:57;3.35;;;3.05;;
12878;SDS011;20617;49.476;10.986;2023-04-25T02:58:02;4.45;;;3.13;;
12878;SDS011;20617;49.476;10.986;2023-04-25T03:00:20;3.30;;;2.88;;
12878;SDS011;20617;49.476;10.986;2023-04-25T03:02:26;5.93;;;3.20;;
12878;SDS011;20617;49.476;10.986;2023-04-25T03:04:31;5.90;;;3.78;;
12878;SDS011;20617;49.476;10.986;2023-04-25T03:06:36;4.50;;;3.42;;
12878;SDS011;20617;49.476;10.986;2023-04-25T03:08:41;4.35;;;3.75;;
12878;SDS011;20617;49.476;10.986;2023-04-25T03:10:46;5.45;;;4.00;;
12878;SDS011;20617;49.476;10.986;2023-04-25T03:12:53;4.95;;;4.07;;
12878;SDS011;20617;49.476;10.986;2023-04-25T03:14:59;6.00;;;4.28;;
12878;SDS011;20617;49.476;10.986;2023-04-25T03:17:06;5.63;;;3.90;;
12878;SDS011;20617;49.476;10.986;2023-04-25T03:19:11;5.20;;;3.95;;
12878;SDS011;20617;49.476;10.986;2023-04-25T03:21:17;4.75;;;4.20;;
12878;SDS011;20617;49.476;10.986;2023-04-25T03:23:22;6.40;;;5.10;;
12878;SDS011;20617;49.476;10.986;2023-04-25T03:27:32;6.53;;;4.45;;
12878;SDS011;20617;49.476;10.986;2023-04-25T03:29:37;5.18;;;4.22;;
12878;SDS011;20617;49.476;10.986;2023-04-25T03:31:43;5.03;;;4.28;;
12878;SDS011;20617;49.476;10.986;2023-04-25T03:33:51;5.13;;;4.20;;
12878;SDS011;20617;49.476;10.986;2023-04-25T03:35:57;4.70;;;3.97;;
12878;SDS011;20617;49.476;10.986;2023-04-25T03:38:03;5.47;;;4.40;;
12878;SDS011;20617;49.476;10.986;2023-04-25T03:40:13;5.40;;;4.55;;
12878;SDS011;20617;49.476;10.986;2023-04-25T03:42:39;7.70;;;4.90;;
12878;SDS011;20617;49.476;10.986;2023-04-25T03:44:46;6.10;;;4.30;;
12878;SDS011;20617;49.476;10.986;2023-04-25T03:46:51;5.22;;;4.53;;
12878;SDS011;20617;49.476;10.986;2023-04-25T03:49:00;6.82;;;5.20;;
12878;SDS011;20617;49.476;10.986;2023-04-25T03:51:28;6.63;;;4.75;;
12878;SDS011;20617;49.476;10.986;2023-04-25T03:53:33;5.18;;;4.13;;
12878;SDS011;20617;49.476;10.986;2023-04-25T03:55:56;5.47;;;4.53;;
12878;SDS011;20617;49.476;10.986;2023-04-25T03:58:02;7.45;;;5.38;;
12878;SDS011;20617;49.476;10.986;2023-04-25T04:00:07;7.50;;;5.28;;
12878;SDS011;20617;49.476;10.986;2023-04-25T04:02:15;8.60;;;5.68;;
12878;SDS011;20617;49.476;10.986;2023-04-25T04:04:23;6.60;;;5.65;;
12878;SDS011;20617;49.476;10.986;2023-04-25T04:06:29;5.63;;;4.80;;
12878;SDS011;20617;49.476;10.986;2023-04-25T04:08:42;9.60;;;6.45;;
12878;SDS011;20617;49.476;10.986;2023-04-25T04:10:46;8.02;;;6.05;;
12878;SDS011;20617;49.476;10.986;2023-04-25T04:12:51;6.80;;;5.28;;
12878;SDS011;20617;49.476;10.986;2023-04-25T04:14:56;6.65;;;5.95;;
12878;SDS011;20617;49.476;10.986;2023-04-25T04:17:02;7.10;;;5.57;;
12878;SDS011;20617;49.476;10.986;2023-04-25T04:19:08;7.57;;;5.82;;
12878;SDS011;20617;49.476;10.986;2023-04-25T04:21:20;7.97;;;6.03;;
12878;SDS011;20617;49.476;10.986;2023-04-25T04:23:25;9.25;;;5.63;;
12878;SDS011;20617;49.476;10.986;2023-04-25T04:25:32;8.55;;;5.70;;
12878;SDS011;20617;49.476;10.986;2023-04-25T04:27:47;7.70;;;5.93;;
12878;SDS011;20617;49.476;10.986;2023-04-25T04:30:02;7.95;;;7.15;;
12878;SDS011;20617;49.476;10.986;2023-04-25T04:32:13;9.38;;;6.85;;
12878;SDS011;20617;49.476;10.986;2023-04-25T04:34:19;11.05;;;6.32;;
12878;SDS011;20617;49.476;10.986;2023-04-25T04:36:29;9.75;;;6.88;;
12878;SDS011;20617;49.476;10.986;2023-04-25T04:38:34;8.60;;;6.18;;
12878;SDS011;20617;49.476;10.986;2023-04-25T04:40:44;9.27;;;6.97;;
12878;SDS011;20617;49.476;10.986;2023-04-25T04:43:12;10.25;;;7.05;;
12878;SDS011;20617;49.476;10.986;2023-04-25T04:45:57;6.40;;;5.68;;
12878;SDS011;20617;49.476;10.986;2023-04-25T04:48:16;8.60;;;6.65;;
12878;SDS011;20617;49.476;10.986;2023-04-25T04:50:28;6.45;;;5.78;;
12878;SDS011;20617;49.476;10.986;2023-04-25T04:52:59;8.05;;;6.90;;
12878;SDS011;20617;49.476;10.986;2023-04-25T04:55:15;7.25;;;6.55;;
12878;SDS011;20617;49.476;10.986;2023-04-25T04:57:46;8.13;;;6.90;;
12878;SDS011;20617;49.476;10.986;2023-04-25T05:00:07;7.50;;;6.25;;
12878;SDS011;20617;49.476;10.986;2023-04-25T05:02:41;9.50;;;6.97;;
12878;SDS011;20617;49.476;10.986;2023-04-25T05:05:07;8.40;;;6.45;;
12878;SDS011;20617;49.476;10.986;2023-04-25T05:07:27;8.70;;;6.43;;
12878;SDS011;20617;49.476;10.986;2023-04-25T05:09:37;7.00;;;5.90;;
12878;SDS011;20617;49.476;10.986;2023-04-25T05:12:14;8.57;;;6.22;;
12878;SDS011;20617;49.476;10.986;2023-04-25T05:14:26;7.57;;;6.43;;
12878;SDS011;20617;49.476;10.986;2023-04-25T05:16:56;8.32;;;6.50;;
12878;SDS011;20617;49.476;10.986;2023-04-25T05:19:11;7.43;;;6.28;;
12878;SDS011;20617;49.476;10.986;2023-04-25T05:21:23;7.63;;;6.15;;
12878;SDS011;20617;49.476;10.986;2023-04-25T05:23:40;8.30;;;6.10;;
12878;SDS011;20617;49.476;10.986;2023-04-25T05:26:08;7.07;;;5.93;;
12878;SDS011;20617;49.476;10.986;2023-04-25T05:28:28;7.43;;;6.60;;
12878;SDS011;20617;49.476;10.986;2023-04-25T05:30:50;7.13;;;6.10;;
12878;SDS011;20617;49.476;10.986;2023-04-25T05:33:01;7.18;;;6.47;;
12878;SDS011;20617;49.476;10.986;2023-04-25T05:35:07;9.13;;;6.65;;
12878;SDS011;20617;49.476;10.986;2023-04-25T05:37:20;7.25;;;5.78;;
12878;SDS011;20617;49.476;10.986;2023-04-25T05:39:45;7.53;;;6.55;;
12878;SDS011;20617;49.476;10.986;2023-04-25T05:42:11;7.53;;;5.70;;
12878;SDS011;20617;49.476;10.986;2023-04-25T05:44:42;7.47;;;6.22;;
12878;SDS011;20617;49.476;10.986;2023-04-25T05:47:10;8.77;;;6.65;;
12878;SDS011;20617;49.476;10.986;2023-04-25T05:49:34;9.43;;;6.95;;
12878;SDS011;20617;49.476;10.986;2023-04-25T05:51:54;7.20;;;6.00;;
12878;SDS011;20617;49.476;10.986;2023-04-25T05:54:21;7.60;;;6.72;;
12878;SDS011;20617;49.476;10.986;2023-04-25T05:56:28;12.82;;;6.15;;
12878;SDS011;20617;49.476;10.986;2023-04-25T05:58:36;7.43;;;6.43;;
12878;SDS011;20617;49.476;10.986;2023-04-25T06:00:46;7.47;;;6.10;;
12878;SDS011;20617;49.476;10.986;2023-04-25T06:04:57;8.48;;;6.45;;
12878;SDS011;20617;49.476;10.986;2023-04-25T06:07:05;7.32;;;6.15;;
12878;SDS011;20617;49.476;10.986;2023-04-25T06:11:15;9.10;;;7.15;;
12878;SDS011;20617;49.476;10.986;2023-04-25T06:13:21;9.80;;;6.95;;
12878;SDS011;20617;49.476;10.986;2023-04-25T06:15:29;8.15;;;6.68;;
12878;SDS011;20617;49.476;10.986;2023-04-25T06:17:35;10.07;;;6.72;;
12878;SDS011;20617;49.476;10.986;2023-04-25T06:19:49;8.25;;;7.13;;
12878;SDS011;20617;49.476;10.986;2023-04-25T06:21:54;8.23;;;6.72;;
12878;SDS011;20617;49.476;10.986;2023-04-25T06:24:00;8.43;;;7.00;;
12878;SDS011;20617;49.476;10.986;2023-04-25T06:26:09;10.55;;;6.88;;
12878;SDS011;20617;49.476;10.986;2023-04-25T06:28:16;9.20;;;6.80;;
12878;SDS011;20617;49.476;10.986;2023-04-25T06:30:23;10.20;;;7.15;;
12878;SDS011;20617;49.476;10.986;2023-04-25T06:32:37;8.20;;;7.30;;
12878;SDS011;20617;49.476;10.986;2023-04-25T06:34:42;8.63;;;7.18;;
12878;SDS011;20617;49.476;10.986;2023-04-25T06:36:48;7.63;;;6.82;;
12878;SDS011;20617;49.476;10.986;2023-04-25T06:38:54;9.10;;;8.20;;
12878;SDS011;20617;49.476;10.986;2023-04-25T06:41:00;8.90;;;6.90;;
12878;SDS011;20617;49.476;10.986;2023-04-25T06:43:09;8.43;;;6.97;;
12878;SDS011;20617;49.476;10.986;2023-04-25T06:45:32;7.68;;;6.93;;
12878;SDS011;20617;49.476;10.986;2023-04-25T06:49:45;8.35;;;7.45;;
12878;SDS011;20617;49.476;10.986;2023-04-25T06:51:50;8.48;;;6.65;;
12878;SDS011;20617;49.476;10.986;2023-04-25T06:53:55;9.85;;;7.25;;
12878;SDS011;20617;49.476;10.986;2023-04-25T06:56:07;8.30;;;6.97;;
12878;SDS011;20617;49.476;10.986;2023-04-25T06:58:34;7.82;;;6.70;;
12878;SDS011;20617;49.476;10.986;2023-04-25T07:00:49;7.18;;;6.25;;
12878;SDS011;20617;49.476;10.986;2023-04-25T07:02:59;8.10;;;6.70;;
12878;SDS011;20617;49.476;10.986;2023-04-25T07:05:06;8.75;;;6.50;;
12878;SDS011;20617;49.476;10.986;2023-04-25T07:09:25;7.97;;;6.25;;
12878;SDS011;20617;49.476;10.986;2023-04-25T07:11:30;8.80;;;6.38;;
12878;SDS011;20617;49.476;10.986;2023-04-25T07:13:35;8.35;;;6.30;;
12878;SDS011;20617;49.476;10.986;2023-04-25T07:15:40;6.00;;;5.10;;
12878;SDS011;20617;49.476;10.986;2023-04-25T07:17:46;6.28;;;4.57;;
12878;SDS011;20617;49.476;10.986;2023-04-25T07:19:54;10.30;;;4.90;;
12878;SDS011;20617;49.476;10.986;2023-04-25T07:22:00;8.15;;;4.38;;
12878;SDS011;20617;49.476;10.986;2023-04-25T07:24:07;6.70;;;4.43;;
12878;SDS011;20617;49.476;10.986;2023-04-25T07:26:16;7.03;;;5.10;;
12878;SDS011;20617;49.476;10.986;2023-04-25T07:28:48;7.70;;;5.10;;
12878;SDS011;20617;49.476;10.986;2023-04-25T07:30:53;12.57;;;8.95;;
12878;SDS011;20617;49.476;10.986;2023-04-25T07:32:59;8.43;;;6.28;;
12878;SDS011;20617;49.476;10.986;2023-04-25T07:35:08;6.85;;;4.75;;
12878;SDS011;20617;49.476;10.986;2023-04-25T07:37:15;6.88;;;4.93;;
12878;SDS011;20617;49.476;10.986;2023-04-25T07:39:34;7.50;;;4.65;;
12878;SDS011;20617;49.476;10.986;2023-04-25T07:41:39;7.10;;;5.00;;
12878;SDS011;20617;49.476;10.986;2023-04-25T07:43:52;7.60;;;4.85;;
12878;SDS011;20617;49.476;10.986;2023-04-25T07:45:57;7.00;;;4.60;;
12878;SDS011;20617;49.476;10.986;2023-04-25T07:48:05;8.75;;;5.32;;
12878;SDS011;20617;49.476;10.986;2023-04-25T07:50:14;9.65;;;5.32;;
12878;SDS011;20617;49.476;10.986;2023-04-25T07:52:21;9.00;;;5.00;;
12878;SDS011;20617;49.476;10.986;2023-04-25T07:54:34;10.85;;;4.70;;
12878;SDS011;20617;49.476;10.986;2023-04-25T07:56:47;7.00;;;5.03;;
12878;SDS011;20617;49.476;10.986;2023-04-25T07:58:55;6.72;;;4.28;;
12878;SDS011;20617;49.476;10.986;2023-04-25T08:01:00;6.78;;;3.75;;
12878;SDS011;20617;49.476;10.986;2023-04-25T08:03:09;7.05;;;4.13;;
12878;SDS011;20617;49.476;10.986;2023-04-25T08:05:18;5.88;;;3.65;;
12878;SDS011;20617;49.476;10.986;2023-04-25T08:07:32;5.32;;;3.47;;
12878;SDS011;20617;49.476;10.986;2023-04-25T08:09:39;5.55;;;4.10;;
12878;SDS011;20617;49.476;10.986;2023-04-25T08:11:55;7.60;;;4.07;;
12878;SDS011;20617;49.476;10.986;2023-04-25T08:14:04;7.85;;;4.43;;
12878;SDS011;20617;49.476;10.986;2023-04-25T08:16:11;6.22;;;3.80;;
12878;SDS011;20617;49.476;10.986;2023-04-25T08:22:32;5.82;;;3.55;;
12878;SDS011;20617;49.476;10.986;2023-04-25T08:24:55;5.68;;;3.33;;
12878;SDS011;20617;49.476;10.986;2023-04-25T08:27:01;5.18;;;3.28;;
12878;SDS011;20617;49.476;10.986;2023-04-25T08:29:06;6.18;;;3.45;;
12878;SDS011;20617;49.476;10.986;2023-04-25T08:31:13;6.32;;;3.80;;
12878;SDS011;20617;49.476;10.986;2023-04-25T08:33:36;5.30;;;3.33;;
12878;SDS011;20617;49.476;10.986;2023-04-25T08:35:54;4.35;;;3.13;;
12878;SDS011;20617;49.476;10.986;2023-04-25T08:38:01;4.55;;;3.40;;
12878;SDS011;20617;49.476;10.986;2023-04-25T08:40:07;13.13;;;4.20;;
12878;SDS011;20617;49.476;10.986;2023-04-25T08:42:31;5.55;;;3.72;;
12878;SDS011;20617;49.476;10.986;2023-04-25T08:44:38;5.65;;;4.13;;
12878;SDS011;20617;49.476;10.986;2023-04-25T08:46:44;6.15;;;3.83;;
12878;SDS011;20617;49.476;10.986;2023-04-25T08:49:04;4.47;;;3.75;;
12878;SDS011;20617;49.476;10.986;2023-04-25T08:51:14;5.97;;;4.20;;
12878;SDS011;20617;49.476;10.986;2023-04-25T08:53:27;6.38;;;3.97;;
12878;SDS011;20617;49.476;10.986;2023-04-25T08:55:37;6.80;;;4.80;;
12878;SDS011;20617;49.476;10.986;2023-04-25T08:57:45;6.03;;;4.03;;
12878;SDS011;20617;49.476;10.986;2023-04-25T08:59:51;6.10;;;4.63;;
12878;SDS011;20617;49.476;10.986;2023-04-25T09:01:58;9.88;;;5.47;;
12878;SDS011;20617;49.476;10.986;2023-04-25T09:04:05;8.45;;;5.20;;
12878;SDS011;20617;49.476;10.986;2023-04-25T09:06:12;6.60;;;4.32;;
12878;SDS011;20617;49.476;10.986;2023-04-25T09:08:18;7.82;;;4.70;;
12878;SDS011;20617;49.476;10.986;2023-04-25T09:10:23;8.95;;;5.50;;
12878;SDS011;20617;49.476;10.986;2023-04-25T09:12:31;5.70;;;4.57;;
12878;SDS011;20617;49.476;10.986;2023-04-25T09:14:36;8.55;;;5.72;;
12878;SDS011;20617;49.476;10.986;2023-04-25T09:16:59;9.25;;;6.18;;
12878;SDS011;20617;49.476;10.986;2023-04-25T09:19:20;7.38;;;5.22;;
12878;SDS011;20617;49.476;10.986;2023-04-25T09:21:51;8.32;;;5.65;;
12878;SDS011;20617;49.476;10.986;2023-04-25T09:23:58;6.88;;;4.68;;
12878;SDS011;20617;49.476;10.986;2023-04-25T09:26:04;8.25;;;6.35;;
12878;SDS011;20617;49.476;10.986;2023-04-25T09:28:11;9.40;;;5.65;;
12878;SDS011;20617;49.476;10.986;2023-04-25T09:30:16;8.68;;;7.47;;
12878;SDS011;20617;49.476;10.986;2023-04-25T09:32:35;7.97;;;5.82;;
12878;SDS011;20617;49.476;10.986;2023-04-25T09:34:42;6.35;;;4.43;;
12878;SDS011;20617;49.476;10.986;2023-04-25T09:36:56;7.63;;;5.55;;
12878;SDS011;20617;49.476;10.986;2023-04-25T09:39:28;10.77;;;5.70;;
12878;SDS011;20617;49.476;10.986;2023-04-25T09:41:44;7.65;;;5.65;;
12878;SDS011;20617;49.476;10.986;2023-04-25T09:43:49;7.43;;;5.15;;
12878;SDS011;20617;49.476;10.986;2023-04-25T09:45:55;8.52;;;5.30;;
12878;SDS011;20617;49.476;10.986;2023-04-25T09:48:04;8.57;;;4.90;;
12878;SDS011;20617;49.476;10.986;2023-04-25T09:50:17;8.25;;;5.70;;
12878;SDS011;20617;49.476;10.986;2023-04-25T09:52:37;8.02;;;5.53;;
12878;SDS011;20617;49.476;10.986;2023-04-25T09:54:56;5.88;;;4.88;;
12878;SDS011;20617;49.476;10.986;2023-04-25T09:57:10;8.23;;;5.38;;
12878;SDS011;20617;49.476;10.986;2023-04-25T09:59:16;7.72;;;4.65;;
12878;SDS011;20617;49.476;10.986;2023-04-25T10:01:24;8.60;;;4.82;;
12878;SDS011;20617;49.476;10.986;2023-04-25T10:03:40;6.80;;;4.90;;
12878;SDS011;20617;49.476;10.986;2023-04-25T10:06:06;5.72;;;4.90;;
12878;SDS011;20617;49.476;10.986;2023-04-25T10:08:15;6.47;;;5.35;;
12878;SDS011;20617;49.476;10.986;2023-04-25T10:10:21;7.25;;;5.13;;
12878;SDS011;20617;49.476;10.986;2023-04-25T10:12:32;7.72;;;4.97;;
12878;SDS011;20617;49.476;10.986;2023-04-25T10:14:38;7.40;;;4.53;;
12878;SDS011;20617;49.476;10.986;2023-04-25T10:16:44;8.15;;;4.63;;
12878;SDS011;20617;49.476;10.986;2023-04-25T10:18:50;7.20;;;4.40;;
12878;SDS011;20617;49.476;10.986;2023-04-25T10:20:56;6.70;;;3.80;;
12878;SDS011;20617;49.476;10.986;2023-04-25T10:23:03;5.63;;;3.38;;
12878;SDS011;20617;49.476;10.986;2023-04-25T10:25:19;4.70;;;2.80;;
12878;SDS011;20617;49.476;10.986;2023-04-25T10:27:24;7.72;;;2.92;;
12878;SDS011;20617;49.476;10.986;2023-04-25T10:29:31;6.60;;;2.42;;
12878;SDS011;20617;49.476;10.986;2023-04-25T10:33:49;4.32;;;3.00;;
12878;SDS011;20617;49.476;10.986;2023-04-25T10:35:54;4.95;;;3.10;;
12878;SDS011;20617;49.476;10.986;2023-04-25T10:38:03;5.93;;;2.95;;
12878;SDS011;20617;49.476;10.986;2023-04-25T10:40:09;5.57;;;2.78;;
12878;SDS011;20617;49.476;10.986;2023-04-25T10:42:20;6.13;;;2.38;;
12878;SDS011;20617;49.476;10.986;2023-04-25T10:44:27;6.07;;;2.65;;
12878;SDS011;20617;49.476;10.986;2023-04-25T10:46:32;3.33;;;2.10;;
12878;SDS011;20617;49.476;10.986;2023-04-25T10:48:38;5.00;;;2.33;;
12878;SDS011;20617;49.476;10.986;2023-04-25T10:50:50;3.50;;;1.98;;
12878;SDS011;20617;49.476;10.986;2023-04-25T10:53:14;2.78;;;1.75;;
12878;SDS011;20617;49.476;10.986;2023-04-25T10:55:19;4.20;;;2.28;;
12878;SDS011;20617;49.476;10.986;2023-04-25T10:57:31;5.50;;;2.20;;
12878;SDS011;20617;49.476;10.986;2023-04-25T10:59:37;4.97;;;1.90;;
12878;SDS011;20617;49.476;10.986;2023-04-25T11:01:45;3.28;;;2.10;;
12878;SDS011;20617;49.476;10.986;2023-04-25T11:03:57;3.75;;;1.92;;
12878;SDS011;20617;49.476;10.986;2023-04-25T11:06:03;5.05;;;2.25;;
12878;SDS011;20617;49.476;10.986;2023-04-25T11:08:11;4.68;;;2.75;;
12878;SDS011;20617;49.476;10.986;2023-04-25T11:10:18;3.90;;;1.83;;
12878;SDS011;20617;49.476;10.986;2023-04-25T11:12:24;2.60;;;1.83;;
12878;SDS011;20617;49.476;10.986;2023-04-25T11:14:31;4.88;;;1.95;;
12878;SDS011;20617;49.476;10.986;2023-04-25T11:16:36;3.85;;;1.45;;
12878;SDS011;20617;49.476;10.986;2023-04-25T11:18:42;3.70;;;1.80;;
12878;SDS011;20617;49.476;10.986;2023-04-25T11:20:47;1.95;;;1.50;;
12878;SDS011;20617;49.476;10.986;2023-04-25T11:22:52;2.22;;;1.42;;
12878;SDS011;20617;49.476;10.986;2023-04-25T11:24:58;2.78;;;1.70;;
12878;SDS011;20617;49.476;10.986;2023-04-25T11:27:08;3.08;;;1.88;;
12878;SDS011;20617;49.476;10.986;2023-04-25T11:29:13;5.78;;;2.17;;
12878;SDS011;20617;49.476;10.986;2023-04-25T11:31:22;2.45;;;1.63;;
12878;SDS011;20617;49.476;10.986;2023-04-25T11:33:29;3.75;;;1.55;;
12878;SDS011;20617;49.476;10.986;2023-04-25T11:35:34;2.63;;;1.48;;
12878;SDS011;20617;49.476;10.986;2023-04-25T11:37:39;1.65;;;1.40;;
12878;SDS011;20617;49.476;10.986;2023-04-25T11:39:45;6.60;;;1.98;;
12878;SDS011;20617;49.476;10.986;2023-04-25T11:41:50;2.75;;;1.40;;
12878;SDS011;20617;49.476;10.986;2023-04-25T11:43:56;2.67;;;1.45;;
12878;SDS011;20617;49.476;10.986;2023-04-25T11:46:01;3.17;;;1.50;;
12878;SDS011;20617;49.476;10.986;2023-04-25T11:48:14;2.00;;;1.20;;
12878;SDS011;20617;49.476;10.986;2023-04-25T11:50:19;4.05;;;1.13;;
12878;SDS011;20617;49.476;10.986;2023-04-25T11:52:24;2.63;;;1.65;;
12878;SDS011;20617;49.476;10.986;2023-04-25T11:54:39;2.28;;;1.40;;
12878;SDS011;20617;49.476;10.986;2023-04-25T11:56:44;3.58;;;1.42;;
12878;SDS011;20617;49.476;10.986;2023-04-25T11:58:56;5.93;;;1.50;;
12878;SDS011;20617;49.476;10.986;2023-04-25T12:01:02;5.50;;;1.40;;
12878;SDS011;20617;49.476;10.986;2023-04-25T12:03:08;3.08;;;1.17;;
12878;SDS011;20617;49.476;10.986;2023-04-25T12:05:16;1.23;;;1.13;;
12878;SDS011;20617;49.476;10.986;2023-04-25T12:07:34;2.40;;;1.52;;
12878;SDS011;20617;49.476;10.986;2023-04-25T12:09:39;3.70;;;1.50;;
12878;SDS011;20617;49.476;10.986;2023-04-25T12:11:44;1.92;;;1.45;;
12878;SDS011;20617;49.476;10.986;2023-04-25T12:13:51;2.05;;;1.20;;
12878;SDS011;20617;49.476;10.986;2023-04-25T12:15:56;5.00;;;1.58;;
12878;SDS011;20617;49.476;10.986;2023-04-25T12:18:01;2.53;;;1.83;;
12878;SDS011;20617;49.476;10.986;2023-04-25T12:20:08;3.28;;;1.63;;
12878;SDS011;20617;49.476;10.986;2023-04-25T12:22:26;1.83;;;1.45;;
12878;SDS011;20617;49.476;10.986;2023-04-25T12:24:33;4.45;;;1.60;;
12878;SDS011;20617;49.476;10.986;2023-04-25T12:26:49;5.97;;;1.52;;
12878;SDS011;20617;49.476;10.986;2023-04-25T12:28:56;2.22;;;1.50;;
12878;SDS011;20617;49.476;10.986;2023-04-25T12:31:02;1.60;;;1.15;;
12878;SDS011;20617;49.476;10.986;2023-04-25T12:33:08;2.70;;;1.63;;
12878;SDS011;20617;49.476;10.986;2023-04-25T12:35:15;2.63;;;1.70;;
12878;SDS011;20617;49.476;10.986;2023-04-25T12:37:20;3.00;;;1.50;;
12878;SDS011;20617;49.476;10.986;2023-04-25T12:39:28;2.03;;;1.83;;
12878;SDS011;20617;49.476;10.986;2023-04-25T12:41:33;3.00;;;2.05;;
12878;SDS011;20617;49.476;10.986;2023-04-25T12:43:39;6.43;;;1.92;;
12878;SDS011;20617;49.476;10.986;2023-04-25T12:45:44;3.15;;;1.80;;
12878;SDS011;20617;49.476;10.986;2023-04-25T12:47:49;3.65;;;2.08;;
12878;SDS011;20617;49.476;10.986;2023-04-25T12:49:54;3.05;;;1.95;;
12878;SDS011;20617;49.476;10.986;2023-04-25T12:51:58;2.97;;;1.80;;
12878;SDS011;20617;49.476;10.986;2023-04-25T12:54:04;3.65;;;2.20;;
12878;SDS011;20617;49.476;10.986;2023-04-25T12:56:13;2.78;;;2.03;;
12878;SDS011;20617;49.476;10.986;2023-04-25T12:58:20;2.40;;;1.80;;
12878;SDS011;20617;49.476;10.986;2023-04-25T13:00:25;2.58;;;1.70;;
12878;SDS011;20617;49.476;10.986;2023-04-25T13:02:30;2.97;;;2.33;;
12878;SDS011;20617;49.476;10.986;2023-04-25T13:04:35;3.28;;;2.00;;
12878;SDS011;20617;49.476;10.986;2023-04-25T13:06:41;5.80;;;2.47;;
12878;SDS011;20617;49.476;10.986;2023-04-25T13:08:46;3.08;;;2.03;;
12878;SDS011;20617;49.476;10.986;2023-04-25T13:10:51;2.70;;;1.80;;
12878;SDS011;20617;49.476;10.986;2023-04-25T13:12:59;2.85;;;2.13;;
12878;SDS011;20617;49.476;10.986;2023-04-25T13:15:04;2.75;;;1.70;;